Brush Creek, California
Current Conditions -  °F | °C
As of 7:53 PM on Monday 22 Dec 2014 (Local Time) from KOVE Reporting Station
Clear Clear  
Wind Chill: 54°   Ceiling: Unl
Heat Index: 54°   Visibility: 10mi
Dew Point: 51°   Wind: 0mph
Humidity: 90%   Direction: NA
Pressure: 30.19"   Gusts: NA
Location:  39.7419°N, 121.306°W
Report Text: KOVE 230353Z AUTO 00000KT 10SM CLR 12/11 A3019 RMK AO2 SLP225 T01220106
Loading
Personal Weather Stations






























Interactive Weather Map New forecast layout! Learn more

10-Day Weather Forecast

Advertisements
Track Severe Weather on mobile